sensor_id;sensor_type;location;lat;lon;timestamp;P1;durP1;ratioP1;P2;durP2;ratioP2
48623;SDS011;34422;45.802;16.114;2022-09-28T00:01:22;4.82;;;1.60;;
48623;SDS011;34422;45.802;16.114;2022-09-28T00:03:52;4.22;;;1.75;;
48623;SDS011;34422;45.802;16.114;2022-09-28T00:06:23;5.68;;;1.98;;
48623;SDS011;34422;45.802;16.114;2022-09-28T00:08:52;5.15;;;2.03;;
48623;SDS011;34422;45.802;16.114;2022-09-28T00:11:23;4.95;;;2.40;;
48623;SDS011;34422;45.802;16.114;2022-09-28T00:13:54;3.90;;;2.28;;
48623;SDS011;34422;45.802;16.114;2022-09-28T00:16:25;5.18;;;1.90;;
48623;SDS011;34422;45.802;16.114;2022-09-28T00:18:54;4.28;;;1.58;;
48623;SDS011;34422;45.802;16.114;2022-09-28T00:21:23;4.68;;;1.77;;
48623;SDS011;34422;45.802;16.114;2022-09-28T00:23:52;5.32;;;1.70;;
48623;SDS011;34422;45.802;16.114;2022-09-28T00:29:23;4.68;;;1.92;;
48623;SDS011;34422;45.802;16.114;2022-09-28T00:34:25;5.00;;;2.13;;
48623;SDS011;34422;45.802;16.114;2022-09-28T00:36:54;5.03;;;2.10;;
48623;SDS011;34422;45.802;16.114;2022-09-28T00:39:21;4.20;;;1.85;;
48623;SDS011;34422;45.802;16.114;2022-09-28T00:41:49;7.07;;;2.00;;
48623;SDS011;34422;45.802;16.114;2022-09-28T00:46:57;4.38;;;2.10;;
48623;SDS011;34422;45.802;16.114;2022-09-28T00:49:41;3.83;;;1.73;;
48623;SDS011;34422;45.802;16.114;2022-09-28T00:52:25;4.50;;;1.90;;
48623;SDS011;34422;45.802;16.114;2022-09-28T00:54:58;3.53;;;1.40;;
48623;SDS011;34422;45.802;16.114;2022-09-28T00:57:30;4.25;;;1.90;;
48623;SDS011;34422;45.802;16.114;2022-09-28T00:59:58;5.47;;;1.80;;
48623;SDS011;34422;45.802;16.114;2022-09-28T01:02:27;3.92;;;1.67;;
48623;SDS011;34422;45.802;16.114;2022-09-28T01:04:55;4.00;;;1.80;;
48623;SDS011;34422;45.802;16.114;2022-09-28T01:07:23;3.75;;;1.50;;
48623;SDS011;34422;45.802;16.114;2022-09-28T01:09:51;3.38;;;1.48;;
48623;SDS011;34422;45.802;16.114;2022-09-28T01:12:19;5.10;;;1.80;;
48623;SDS011;34422;45.802;16.114;2022-09-28T01:14:46;5.65;;;1.85;;
48623;SDS011;34422;45.802;16.114;2022-09-28T01:17:15;4.72;;;1.55;;
48623;SDS011;34422;45.802;16.114;2022-09-28T01:25:54;5.70;;;2.20;;
48623;SDS011;34422;45.802;16.114;2022-09-28T01:28:36;4.22;;;1.85;;
48623;SDS011;34422;45.802;16.114;2022-09-28T01:31:05;4.10;;;1.98;;
48623;SDS011;34422;45.802;16.114;2022-09-28T01:36:18;4.65;;;2.17;;
48623;SDS011;34422;45.802;16.114;2022-09-28T01:38:52;6.80;;;2.40;;
48623;SDS011;34422;45.802;16.114;2022-09-28T01:41:24;6.25;;;2.53;;
48623;SDS011;34422;45.802;16.114;2022-09-28T01:43:56;6.22;;;2.70;;
48623;SDS011;34422;45.802;16.114;2022-09-28T01:46:31;5.03;;;2.60;;
48623;SDS011;34422;45.802;16.114;2022-09-28T01:49:08;4.32;;;2.13;;
48623;SDS011;34422;45.802;16.114;2022-09-28T01:54:20;3.95;;;2.00;;
48623;SDS011;34422;45.802;16.114;2022-09-28T01:56:55;4.10;;;2.00;;
48623;SDS011;34422;45.802;16.114;2022-09-28T01:59:28;5.00;;;2.05;;
48623;SDS011;34422;45.802;16.114;2022-09-28T02:02:03;6.00;;;2.25;;
48623;SDS011;34422;45.802;16.114;2022-09-28T02:07:12;5.35;;;1.75;;
48623;SDS011;34422;45.802;16.114;2022-09-28T02:09:48;5.63;;;1.98;;
48623;SDS011;34422;45.802;16.114;2022-09-28T02:12:26;5.13;;;1.77;;
48623;SDS011;34422;45.802;16.114;2022-09-28T02:15:50;7.72;;;2.20;;
48623;SDS011;34422;45.802;16.114;2022-09-28T02:18:29;4.38;;;2.03;;
48623;SDS011;34422;45.802;16.114;2022-09-28T02:21:08;3.88;;;1.88;;
48623;SDS011;34422;45.802;16.114;2022-09-28T02:23:41;3.63;;;1.65;;
48623;SDS011;34422;45.802;16.114;2022-09-28T02:26:17;10.00;;;2.28;;
48623;SDS011;34422;45.802;16.114;2022-09-28T02:28:48;4.75;;;2.20;;
48623;SDS011;34422;45.802;16.114;2022-09-28T02:31:16;4.28;;;1.80;;
48623;SDS011;34422;45.802;16.114;2022-09-28T02:33:43;4.38;;;1.90;;
48623;SDS011;34422;45.802;16.114;2022-09-28T02:36:12;6.40;;;2.10;;
48623;SDS011;34422;45.802;16.114;2022-09-28T02:38:40;5.88;;;2.40;;
48623;SDS011;34422;45.802;16.114;2022-09-28T02:47:02;4.15;;;1.50;;
48623;SDS011;34422;45.802;16.114;2022-09-28T02:49:42;8.00;;;2.20;;
48623;SDS011;34422;45.802;16.114;2022-09-28T03:00:23;6.97;;;2.55;;
48623;SDS011;34422;45.802;16.114;2022-09-28T03:05:33;6.07;;;2.10;;
48623;SDS011;34422;45.802;16.114;2022-09-28T03:08:11;8.60;;;2.60;;
48623;SDS011;34422;45.802;16.114;2022-09-28T03:10:52;5.00;;;2.40;;
48623;SDS011;34422;45.802;16.114;2022-09-28T03:13:24;6.68;;;3.03;;
48623;SDS011;34422;45.802;16.114;2022-09-28T03:16:04;6.13;;;3.03;;
48623;SDS011;34422;45.802;16.114;2022-09-28T03:18:34;6.28;;;3.17;;
48623;SDS011;34422;45.802;16.114;2022-09-28T03:21:02;5.75;;;2.90;;
48623;SDS011;34422;45.802;16.114;2022-09-28T03:23:30;8.02;;;2.80;;
48623;SDS011;34422;45.802;16.114;2022-09-28T03:25:57;8.55;;;2.80;;
48623;SDS011;34422;45.802;16.114;2022-09-28T03:28:25;5.20;;;2.95;;
48623;SDS011;34422;45.802;16.114;2022-09-28T03:30:53;8.07;;;3.47;;
48623;SDS011;34422;45.802;16.114;2022-09-28T03:33:21;7.18;;;3.00;;
48623;SDS011;34422;45.802;16.114;2022-09-28T03:35:48;5.25;;;2.90;;
48623;SDS011;34422;45.802;16.114;2022-09-28T03:38:16;5.43;;;2.70;;
48623;SDS011;34422;45.802;16.114;2022-09-28T03:40:53;6.18;;;2.70;;
48623;SDS011;34422;45.802;16.114;2022-09-28T03:43:22;7.57;;;3.25;;
48623;SDS011;34422;45.802;16.114;2022-09-28T03:45:54;7.50;;;3.10;;
48623;SDS011;34422;45.802;16.114;2022-09-28T03:48:22;6.28;;;3.20;;
48623;SDS011;34422;45.802;16.114;2022-09-28T03:50:51;5.38;;;3.10;;
48623;SDS011;34422;45.802;16.114;2022-09-28T03:53:20;5.63;;;3.08;;
48623;SDS011;34422;45.802;16.114;2022-09-28T03:55:47;5.40;;;2.90;;
48623;SDS011;34422;45.802;16.114;2022-09-28T03:58:17;7.72;;;3.05;;
48623;SDS011;34422;45.802;16.114;2022-09-28T04:00:48;5.13;;;2.92;;
48623;SDS011;34422;45.802;16.114;2022-09-28T04:03:15;7.57;;;3.08;;
48623;SDS011;34422;45.802;16.114;2022-09-28T04:05:49;6.88;;;3.30;;
48623;SDS011;34422;45.802;16.114;2022-09-28T04:08:18;7.22;;;3.65;;
48623;SDS011;34422;45.802;16.114;2022-09-28T04:10:46;10.50;;;3.80;;
48623;SDS011;34422;45.802;16.114;2022-09-28T04:13:13;9.15;;;3.50;;
48623;SDS011;34422;45.802;16.114;2022-09-28T04:15:40;6.57;;;3.30;;
48623;SDS011;34422;45.802;16.114;2022-09-28T04:18:14;8.02;;;3.95;;
48623;SDS011;34422;45.802;16.114;2022-09-28T04:21:10;7.40;;;3.15;;
48623;SDS011;34422;45.802;16.114;2022-09-28T04:23:38;6.72;;;3.75;;
48623;SDS011;34422;45.802;16.114;2022-09-28T04:26:07;6.88;;;3.55;;
48623;SDS011;34422;45.802;16.114;2022-09-28T04:28:39;7.05;;;3.13;;
48623;SDS011;34422;45.802;16.114;2022-09-28T04:31:24;8.45;;;3.50;;
48623;SDS011;34422;45.802;16.114;2022-09-28T04:33:51;8.68;;;3.78;;
48623;SDS011;34422;45.802;16.114;2022-09-28T04:36:19;6.65;;;3.50;;
48623;SDS011;34422;45.802;16.114;2022-09-28T04:38:46;6.20;;;3.20;;
48623;SDS011;34422;45.802;16.114;2022-09-28T04:41:13;11.45;;;4.10;;
48623;SDS011;34422;45.802;16.114;2022-09-28T04:43:40;8.27;;;4.43;;
48623;SDS011;34422;45.802;16.114;2022-09-28T04:46:08;10.38;;;4.03;;
48623;SDS011;34422;45.802;16.114;2022-09-28T04:48:36;9.30;;;4.53;;
48623;SDS011;34422;45.802;16.114;2022-09-28T04:51:03;8.25;;;4.05;;
48623;SDS011;34422;45.802;16.114;2022-09-28T04:53:30;8.55;;;4.85;;
48623;SDS011;34422;45.802;16.114;2022-09-28T04:56:02;10.85;;;6.70;;
48623;SDS011;34422;45.802;16.114;2022-09-28T04:58:32;9.50;;;7.03;;
48623;SDS011;34422;45.802;16.114;2022-09-28T05:01:01;9.05;;;5.47;;
48623;SDS011;34422;45.802;16.114;2022-09-28T05:03:32;8.63;;;4.80;;
48623;SDS011;34422;45.802;16.114;2022-09-28T05:05:59;9.93;;;5.63;;
48623;SDS011;34422;45.802;16.114;2022-09-28T05:08:27;9.13;;;4.93;;
48623;SDS011;34422;45.802;16.114;2022-09-28T05:11:02;9.05;;;5.25;;
48623;SDS011;34422;45.802;16.114;2022-09-28T05:13:31;11.20;;;6.30;;
48623;SDS011;34422;45.802;16.114;2022-09-28T05:16:01;10.20;;;6.25;;
48623;SDS011;34422;45.802;16.114;2022-09-28T05:18:28;12.90;;;6.90;;
48623;SDS011;34422;45.802;16.114;2022-09-28T05:20:55;13.88;;;7.30;;
48623;SDS011;34422;45.802;16.114;2022-09-28T05:23:22;9.55;;;6.57;;
48623;SDS011;34422;45.802;16.114;2022-09-28T05:25:49;11.02;;;6.53;;
48623;SDS011;34422;45.802;16.114;2022-09-28T05:28:23;12.68;;;6.40;;
48623;SDS011;34422;45.802;16.114;2022-09-28T05:30:58;11.85;;;6.75;;
48623;SDS011;34422;45.802;16.114;2022-09-28T05:33:26;14.75;;;8.07;;
48623;SDS011;34422;45.802;16.114;2022-09-28T05:35:54;10.68;;;6.32;;
48623;SDS011;34422;45.802;16.114;2022-09-28T05:38:22;8.68;;;5.65;;
48623;SDS011;34422;45.802;16.114;2022-09-28T05:40:49;8.88;;;5.90;;
48623;SDS011;34422;45.802;16.114;2022-09-28T05:43:17;10.38;;;6.05;;
48623;SDS011;34422;45.802;16.114;2022-09-28T05:45:44;10.65;;;6.45;;
48623;SDS011;34422;45.802;16.114;2022-09-28T05:48:11;17.08;;;6.63;;
48623;SDS011;34422;45.802;16.114;2022-09-28T05:50:38;15.85;;;8.50;;
48623;SDS011;34422;45.802;16.114;2022-09-28T05:53:06;18.58;;;9.70;;
48623;SDS011;34422;45.802;16.114;2022-09-28T05:55:35;18.02;;;9.77;;
48623;SDS011;34422;45.802;16.114;2022-09-28T05:58:03;9.48;;;5.30;;
48623;SDS011;34422;45.802;16.114;2022-09-28T06:00:32;16.17;;;9.07;;
48623;SDS011;34422;45.802;16.114;2022-09-28T06:03:01;13.65;;;6.93;;
48623;SDS011;34422;45.802;16.114;2022-09-28T06:05:32;8.98;;;5.13;;
48623;SDS011;34422;45.802;16.114;2022-09-28T06:08:02;8.07;;;4.72;;
48623;SDS011;34422;45.802;16.114;2022-09-28T06:10:31;10.45;;;5.75;;
48623;SDS011;34422;45.802;16.114;2022-09-28T06:13:00;8.13;;;4.40;;
48623;SDS011;34422;45.802;16.114;2022-09-28T06:15:28;7.60;;;4.35;;
48623;SDS011;34422;45.802;16.114;2022-09-28T06:20:29;8.68;;;4.88;;
48623;SDS011;34422;45.802;16.114;2022-09-28T06:22:59;9.98;;;5.05;;
48623;SDS011;34422;45.802;16.114;2022-09-28T06:25:27;8.55;;;4.80;;
48623;SDS011;34422;45.802;16.114;2022-09-28T06:27:58;9.07;;;4.35;;
48623;SDS011;34422;45.802;16.114;2022-09-28T06:30:27;6.63;;;3.97;;
48623;SDS011;34422;45.802;16.114;2022-09-28T06:32:56;6.45;;;3.67;;
48623;SDS011;34422;45.802;16.114;2022-09-28T06:35:25;5.57;;;2.88;;
48623;SDS011;34422;45.802;16.114;2022-09-28T06:37:53;8.15;;;3.10;;
48623;SDS011;34422;45.802;16.114;2022-09-28T06:40:21;5.25;;;2.72;;
48623;SDS011;34422;45.802;16.114;2022-09-28T06:45:41;7.45;;;2.75;;
48623;SDS011;34422;45.802;16.114;2022-09-28T06:48:09;86.75;;;53.95;;
48623;SDS011;34422;45.802;16.114;2022-09-28T06:50:38;13.95;;;8.00;;
48623;SDS011;34422;45.802;16.114;2022-09-28T06:53:07;3.97;;;1.77;;
48623;SDS011;34422;45.802;16.114;2022-09-28T06:55:40;4.97;;;1.88;;
48623;SDS011;34422;45.802;16.114;2022-09-28T06:58:09;5.10;;;2.22;;
48623;SDS011;34422;45.802;16.114;2022-09-28T07:00:37;3.17;;;1.20;;
48623;SDS011;34422;45.802;16.114;2022-09-28T07:03:06;4.00;;;1.15;;
48623;SDS011;34422;45.802;16.114;2022-09-28T07:05:48;3.97;;;1.13;;
48623;SDS011;34422;45.802;16.114;2022-09-28T07:08:17;4.05;;;0.98;;
48623;SDS011;34422;45.802;16.114;2022-09-28T07:10:45;3.28;;;0.93;;
48623;SDS011;34422;45.802;16.114;2022-09-28T07:13:14;6.63;;;1.13;;
48623;SDS011;34422;45.802;16.114;2022-09-28T07:15:42;4.35;;;0.95;;
48623;SDS011;34422;45.802;16.114;2022-09-28T07:18:10;3.50;;;1.30;;
48623;SDS011;34422;45.802;16.114;2022-09-28T07:20:38;3.55;;;1.30;;
48623;SDS011;34422;45.802;16.114;2022-09-28T07:23:06;4.07;;;1.38;;
48623;SDS011;34422;45.802;16.114;2022-09-28T07:25:35;3.83;;;0.98;;
48623;SDS011;34422;45.802;16.114;2022-09-28T07:28:03;3.22;;;1.10;;
48623;SDS011;34422;45.802;16.114;2022-09-28T07:30:31;3.15;;;1.10;;
48623;SDS011;34422;45.802;16.114;2022-09-28T07:33:00;3.17;;;1.08;;
48623;SDS011;34422;45.802;16.114;2022-09-28T07:35:29;2.28;;;0.95;;
48623;SDS011;34422;45.802;16.114;2022-09-28T07:37:59;3.13;;;1.15;;
48623;SDS011;34422;45.802;16.114;2022-09-28T07:40:31;6.25;;;1.45;;
48623;SDS011;34422;45.802;16.114;2022-09-28T07:43:17;2.60;;;0.90;;
48623;SDS011;34422;45.802;16.114;2022-09-28T07:45:47;4.13;;;1.48;;
48623;SDS011;34422;45.802;16.114;2022-09-28T07:48:15;3.60;;;1.10;;
48623;SDS011;34422;45.802;16.114;2022-09-28T07:50:53;3.55;;;1.15;;
48623;SDS011;34422;45.802;16.114;2022-09-28T07:53:23;3.65;;;1.40;;
48623;SDS011;34422;45.802;16.114;2022-09-28T07:55:51;5.45;;;1.05;;
48623;SDS011;34422;45.802;16.114;2022-09-28T07:58:22;4.13;;;1.58;;
48623;SDS011;34422;45.802;16.114;2022-09-28T08:00:50;3.50;;;1.00;;
48623;SDS011;34422;45.802;16.114;2022-09-28T08:03:17;3.55;;;0.98;;
48623;SDS011;34422;45.802;16.114;2022-09-28T08:05:45;2.83;;;0.93;;
48623;SDS011;34422;45.802;16.114;2022-09-28T08:08:13;4.13;;;1.20;;
48623;SDS011;34422;45.802;16.114;2022-09-28T08:10:41;4.78;;;1.30;;
48623;SDS011;34422;45.802;16.114;2022-09-28T08:13:09;4.32;;;1.50;;
48623;SDS011;34422;45.802;16.114;2022-09-28T08:15:36;3.65;;;0.82;;
48623;SDS011;34422;45.802;16.114;2022-09-28T08:18:04;4.03;;;1.13;;
48623;SDS011;34422;45.802;16.114;2022-09-28T08:20:32;3.67;;;1.13;;
48623;SDS011;34422;45.802;16.114;2022-09-28T08:23:18;3.58;;;1.23;;
48623;SDS011;34422;45.802;16.114;2022-09-28T08:25:46;4.45;;;1.02;;
48623;SDS011;34422;45.802;16.114;2022-09-28T08:28:16;2.13;;;0.80;;
48623;SDS011;34422;45.802;16.114;2022-09-28T08:30:44;6.55;;;1.27;;
48623;SDS011;34422;45.802;16.114;2022-09-28T08:33:15;3.70;;;0.90;;
48623;SDS011;34422;45.802;16.114;2022-09-28T08:35:44;3.05;;;0.98;;
48623;SDS011;34422;45.802;16.114;2022-09-28T08:38:12;5.80;;;1.08;;
48623;SDS011;34422;45.802;16.114;2022-09-28T08:46:07;3.50;;;1.10;;
48623;SDS011;34422;45.802;16.114;2022-09-28T08:48:38;2.70;;;0.98;;
48623;SDS011;34422;45.802;16.114;2022-09-28T08:54:07;4.70;;;1.08;;
48623;SDS011;34422;45.802;16.114;2022-09-28T08:57:00;4.25;;;1.13;;
48623;SDS011;34422;45.802;16.114;2022-09-28T08:59:44;3.65;;;1.13;;
48623;SDS011;34422;45.802;16.114;2022-09-28T09:02:17;2.42;;;0.90;;
48623;SDS011;34422;45.802;16.114;2022-09-28T09:04:51;4.95;;;0.90;;
48623;SDS011;34422;45.802;16.114;2022-09-28T09:10:31;3.03;;;1.08;;
48623;SDS011;34422;45.802;16.114;2022-09-28T09:24:24;4.45;;;1.60;;
48623;SDS011;34422;45.802;16.114;2022-09-28T09:26:59;5.28;;;1.38;;
48623;SDS011;34422;45.802;16.114;2022-09-28T09:29:38;8.63;;;1.75;;
48623;SDS011;34422;45.802;16.114;2022-09-28T09:38:30;5.95;;;1.63;;
48623;SDS011;34422;45.802;16.114;2022-09-28T09:41:11;4.32;;;1.70;;
48623;SDS011;34422;45.802;16.114;2022-09-28T09:46:55;6.22;;;1.60;;
48623;SDS011;34422;45.802;16.114;2022-09-28T09:49:35;5.25;;;1.55;;
48623;SDS011;34422;45.802;16.114;2022-09-28T09:54:57;4.05;;;1.13;;
48623;SDS011;34422;45.802;16.114;2022-09-28T09:57:31;3.10;;;1.17;;
48623;SDS011;34422;45.802;16.114;2022-09-28T10:00:11;3.88;;;0.98;;
48623;SDS011;34422;45.802;16.114;2022-09-28T10:02:44;3.67;;;0.88;;
48623;SDS011;34422;45.802;16.114;2022-09-28T10:05:18;4.38;;;1.13;;
48623;SDS011;34422;45.802;16.114;2022-09-28T10:07:50;3.03;;;1.15;;
48623;SDS011;34422;45.802;16.114;2022-09-28T10:10:19;6.00;;;2.08;;
48623;SDS011;34422;45.802;16.114;2022-09-28T10:12:51;3.47;;;1.60;;
48623;SDS011;34422;45.802;16.114;2022-09-28T10:15:21;2.72;;;0.77;;
48623;SDS011;34422;45.802;16.114;2022-09-28T10:17:51;3.15;;;0.88;;
48623;SDS011;34422;45.802;16.114;2022-09-28T10:20:21;5.90;;;1.65;;
48623;SDS011;34422;45.802;16.114;2022-09-28T10:22:49;3.25;;;1.00;;
48623;SDS011;34422;45.802;16.114;2022-09-28T10:25:17;3.55;;;1.10;;
48623;SDS011;34422;45.802;16.114;2022-09-28T10:27:46;2.60;;;0.77;;
48623;SDS011;34422;45.802;16.114;2022-09-28T10:30:21;3.03;;;0.90;;
48623;SDS011;34422;45.802;16.114;2022-09-28T10:32:52;3.75;;;0.82;;
48623;SDS011;34422;45.802;16.114;2022-09-28T10:35:25;4.32;;;1.10;;
48623;SDS011;34422;45.802;16.114;2022-09-28T10:37:59;7.47;;;1.20;;
48623;SDS011;34422;45.802;16.114;2022-09-28T10:40:31;3.78;;;1.33;;
48623;SDS011;34422;45.802;16.114;2022-09-28T10:46:09;3.47;;;0.90;;
48623;SDS011;34422;45.802;16.114;2022-09-28T10:48:50;4.78;;;0.95;;
48623;SDS011;34422;45.802;16.114;2022-09-28T10:51:38;2.92;;;1.00;;
48623;SDS011;34422;45.802;16.114;2022-09-28T10:54:14;3.28;;;0.63;;
48623;SDS011;34422;45.802;16.114;2022-09-28T10:56:45;3.15;;;0.98;;
48623;SDS011;34422;45.802;16.114;2022-09-28T11:04:55;4.43;;;1.00;;
48623;SDS011;34422;45.802;16.114;2022-09-28T11:07:25;19.35;;;12.50;;
48623;SDS011;34422;45.802;16.114;2022-09-28T11:09:56;3.92;;;1.38;;
48623;SDS011;34422;45.802;16.114;2022-09-28T11:12:27;9.88;;;3.00;;
48623;SDS011;34422;45.802;16.114;2022-09-28T11:15:03;9.57;;;2.75;;
48623;SDS011;34422;45.802;16.114;2022-09-28T11:17:34;4.53;;;1.27;;
48623;SDS011;34422;45.802;16.114;2022-09-28T11:22:54;3.45;;;1.10;;
48623;SDS011;34422;45.802;16.114;2022-09-28T11:25:22;4.07;;;1.30;;
48623;SDS011;34422;45.802;16.114;2022-09-28T11:30:22;8.88;;;3.10;;
48623;SDS011;34422;45.802;16.114;2022-09-28T11:32:56;4.90;;;1.92;;
48623;SDS011;34422;45.802;16.114;2022-09-28T11:35:40;3.60;;;0.85;;
48623;SDS011;34422;45.802;16.114;2022-09-28T11:50:19;4.82;;;0.90;;
48623;SDS011;34422;45.802;16.114;2022-09-28T11:52:47;4.60;;;1.40;;
48623;SDS011;34422;45.802;16.114;2022-09-28T11:55:26;5.18;;;1.70;;
48623;SDS011;34422;45.802;16.114;2022-09-28T11:58:16;5.53;;;1.45;;
48623;SDS011;34422;45.802;16.114;2022-09-28T12:00:51;6.13;;;1.52;;
48623;SDS011;34422;45.802;16.114;2022-09-28T12:03:47;3.67;;;1.30;;
48623;SDS011;34422;45.802;16.114;2022-09-28T12:06:21;6.07;;;1.30;;
48623;SDS011;34422;45.802;16.114;2022-09-28T12:08:55;3.30;;;1.30;;
48623;SDS011;34422;45.802;16.114;2022-09-28T12:11:34;2.95;;;1.02;;
48623;SDS011;34422;45.802;16.114;2022-09-28T12:14:05;2.78;;;1.00;;
48623;SDS011;34422;45.802;16.114;2022-09-28T12:16:45;4.07;;;1.20;;
48623;SDS011;34422;45.802;16.114;2022-09-28T12:19:31;3.38;;;1.25;;
48623;SDS011;34422;45.802;16.114;2022-09-28T12:22:08;6.72;;;1.10;;
48623;SDS011;34422;45.802;16.114;2022-09-28T12:24:49;6.00;;;2.38;;
48623;SDS011;34422;45.802;16.114;2022-09-28T12:32:38;7.93;;;1.40;;
48623;SDS011;34422;45.802;16.114;2022-09-28T12:35:26;3.70;;;0.95;;
48623;SDS011;34422;45.802;16.114;2022-09-28T12:38:29;3.17;;;1.02;;
48623;SDS011;34422;45.802;16.114;2022-09-28T12:46:27;3.00;;;1.00;;
48623;SDS011;34422;45.802;16.114;2022-09-28T12:49:40;5.63;;;1.08;;
48623;SDS011;34422;45.802;16.114;2022-09-28T12:55:23;4.43;;;1.00;;
48623;SDS011;34422;45.802;16.114;2022-09-28T13:00:52;8.15;;;1.30;;
48623;SDS011;34422;45.802;16.114;2022-09-28T13:03:44;4.32;;;1.00;;
48623;SDS011;34422;45.802;16.114;2022-09-28T13:09:21;2.90;;;1.00;;
48623;SDS011;34422;45.802;16.114;2022-09-28T13:12:04;4.35;;;1.13;;
48623;SDS011;34422;45.802;16.114;2022-09-28T13:26:21;5.05;;;1.10;;
48623;SDS011;34422;45.802;16.114;2022-09-28T13:28:56;5.80;;;1.48;;
48623;SDS011;34422;45.802;16.114;2022-09-28T13:31:30;3.80;;;1.10;;
48623;SDS011;34422;45.802;16.114;2022-09-28T13:33:59;5.32;;;1.20;;
48623;SDS011;34422;45.802;16.114;2022-09-28T13:38:56;7.82;;;1.55;;
48623;SDS011;34422;45.802;16.114;2022-09-28T13:49:39;3.50;;;1.25;;
48623;SDS011;34422;45.802;16.114;2022-09-28T13:57:59;5.63;;;1.30;;
48623;SDS011;34422;45.802;16.114;2022-09-28T14:00:28;4.95;;;1.65;;
48623;SDS011;34422;45.802;16.114;2022-09-28T14:06:05;3.20;;;1.20;;
48623;SDS011;34422;45.802;16.114;2022-09-28T14:11:23;6.30;;;1.50;;
48623;SDS011;34422;45.802;16.114;2022-09-28T14:16:34;4.10;;;1.50;;
48623;SDS011;34422;45.802;16.114;2022-09-28T14:22:01;4.70;;;1.40;;
48623;SDS011;34422;45.802;16.114;2022-09-28T14:35:47;5.28;;;1.75;;
48623;SDS011;34422;45.802;16.114;2022-09-28T14:38:20;6.70;;;1.67;;
48623;SDS011;34422;45.802;16.114;2022-09-28T14:44:08;7.47;;;2.45;;
48623;SDS011;34422;45.802;16.114;2022-09-28T14:51:44;4.47;;;1.90;;
48623;SDS011;34422;45.802;16.114;2022-09-28T14:54:20;6.65;;;2.17;;
48623;SDS011;34422;45.802;16.114;2022-09-28T14:59:21;4.25;;;1.65;;
48623;SDS011;34422;45.802;16.114;2022-09-28T15:01:57;4.20;;;1.48;;
48623;SDS011;34422;45.802;16.114;2022-09-28T15:04:31;4.82;;;1.85;;
48623;SDS011;34422;45.802;16.114;2022-09-28T15:07:01;5.93;;;1.63;;
48623;SDS011;34422;45.802;16.114;2022-09-28T15:09:30;5.35;;;1.50;;
48623;SDS011;34422;45.802;16.114;2022-09-28T15:12:10;5.25;;;3.08;;
48623;SDS011;34422;45.802;16.114;2022-09-28T15:14:46;8.15;;;3.83;;
48623;SDS011;34422;45.802;16.114;2022-09-28T15:17:25;4.50;;;2.30;;
48623;SDS011;34422;45.802;16.114;2022-09-28T15:22:48;5.55;;;2.65;;
48623;SDS011;34422;45.802;16.114;2022-09-28T15:25:18;5.28;;;2.33;;
48623;SDS011;34422;45.802;16.114;2022-09-28T15:27:54;4.88;;;1.90;;
48623;SDS011;34422;45.802;16.114;2022-09-28T15:30:27;4.93;;;2.25;;
48623;SDS011;34422;45.802;16.114;2022-09-28T15:32:58;7.07;;;2.47;;
48623;SDS011;34422;45.802;16.114;2022-09-28T15:35:52;7.28;;;2.50;;
48623;SDS011;34422;45.802;16.114;2022-09-28T15:38:25;5.75;;;2.60;;
48623;SDS011;34422;45.802;16.114;2022-09-28T15:40:52;6.03;;;2.05;;
48623;SDS011;34422;45.802;16.114;2022-09-28T15:43:24;6.50;;;2.50;;
48623;SDS011;34422;45.802;16.114;2022-09-28T15:45:55;8.95;;;2.67;;
48623;SDS011;34422;45.802;16.114;2022-09-28T15:48:29;9.48;;;2.85;;
48623;SDS011;34422;45.802;16.114;2022-09-28T15:51:04;6.40;;;2.85;;
48623;SDS011;34422;45.802;16.114;2022-09-28T15:53:46;7.05;;;2.78;;
48623;SDS011;34422;45.802;16.114;2022-09-28T15:56:19;5.75;;;2.47;;
48623;SDS011;34422;45.802;16.114;2022-09-28T16:01:34;7.53;;;2.30;;
48623;SDS011;34422;45.802;16.114;2022-09-28T16:12:21;10.95;;;6.68;;
48623;SDS011;34422;45.802;16.114;2022-09-28T16:14:51;17.63;;;12.80;;
48623;SDS011;34422;45.802;16.114;2022-09-28T16:17:25;15.15;;;8.20;;
48623;SDS011;34422;45.802;16.114;2022-09-28T16:19:59;9.20;;;6.20;;
48623;SDS011;34422;45.802;16.114;2022-09-28T16:22:29;12.13;;;6.50;;
48623;SDS011;34422;45.802;16.114;2022-09-28T16:24:58;12.32;;;6.22;;
48623;SDS011;34422;45.802;16.114;2022-09-28T16:27:28;13.45;;;6.90;;
48623;SDS011;34422;45.802;16.114;2022-09-28T16:30:17;10.93;;;6.05;;
48623;SDS011;34422;45.802;16.114;2022-09-28T16:32:54;11.90;;;7.05;;
48623;SDS011;34422;45.802;16.114;2022-09-28T16:35:26;13.55;;;8.15;;
48623;SDS011;34422;45.802;16.114;2022-09-28T16:37:57;11.13;;;6.82;;
48623;SDS011;34422;45.802;16.114;2022-09-28T16:40:27;15.00;;;7.40;;
48623;SDS011;34422;45.802;16.114;2022-09-28T16:42:57;9.95;;;5.90;;
48623;SDS011;34422;45.802;16.114;2022-09-28T16:45:28;11.18;;;6.93;;
48623;SDS011;34422;45.802;16.114;2022-09-28T16:47:55;15.25;;;8.60;;
48623;SDS011;34422;45.802;16.114;2022-09-28T16:50:23;14.43;;;9.05;;
48623;SDS011;34422;45.802;16.114;2022-09-28T16:52:56;15.98;;;8.50;;
48623;SDS011;34422;45.802;16.114;2022-09-28T16:55:44;20.48;;;11.70;;
48623;SDS011;34422;45.802;16.114;2022-09-28T16:58:14;17.13;;;9.65;;
48623;SDS011;34422;45.802;16.114;2022-09-28T17:00:41;15.57;;;8.45;;
48623;SDS011;34422;45.802;16.114;2022-09-28T17:03:13;14.27;;;8.10;;
48623;SDS011;34422;45.802;16.114;2022-09-28T17:05:42;23.30;;;13.00;;
48623;SDS011;34422;45.802;16.114;2022-09-28T17:08:13;17.25;;;10.25;;
48623;SDS011;34422;45.802;16.114;2022-09-28T17:13:18;15.75;;;7.85;;
48623;SDS011;34422;45.802;16.114;2022-09-28T17:15:46;17.70;;;8.90;;
48623;SDS011;34422;45.802;16.114;2022-09-28T17:18:16;13.27;;;7.75;;
48623;SDS011;34422;45.802;16.114;2022-09-28T17:20:45;15.15;;;7.82;;
48623;SDS011;34422;45.802;16.114;2022-09-28T17:23:15;36.90;;;21.95;;
48623;SDS011;34422;45.802;16.114;2022-09-28T17:25:43;17.13;;;11.63;;
48623;SDS011;34422;45.802;16.114;2022-09-28T17:28:45;18.90;;;8.38;;
48623;SDS011;34422;45.802;16.114;2022-09-28T17:31:05;16.45;;;6.82;;
48623;SDS011;34422;45.802;16.114;2022-09-28T17:36:03;11.93;;;6.30;;
48623;SDS011;34422;45.802;16.114;2022-09-28T17:38:30;14.90;;;7.03;;
48623;SDS011;34422;45.802;16.114;2022-09-28T17:40:58;14.25;;;6.60;;
48623;SDS011;34422;45.802;16.114;2022-09-28T17:43:25;13.27;;;6.57;;
48623;SDS011;34422;45.802;16.114;2022-09-28T17:45:53;13.43;;;7.95;;
48623;SDS011;34422;45.802;16.114;2022-09-28T17:48:20;43.70;;;33.38;;
48623;SDS011;34422;45.802;16.114;2022-09-28T17:50:51;32.22;;;25.67;;
48623;SDS011;34422;45.802;16.114;2022-09-28T17:53:18;26.58;;;18.17;;
48623;SDS011;34422;45.802;16.114;2022-09-28T17:55:45;20.52;;;15.15;;
48623;SDS011;34422;45.802;16.114;2022-09-28T17:58:17;21.23;;;14.05;;
48623;SDS011;34422;45.802;16.114;2022-09-28T18:00:48;21.98;;;14.90;;
48623;SDS011;34422;45.802;16.114;2022-09-28T18:03:18;21.98;;;13.35;;
48623;SDS011;34422;45.802;16.114;2022-09-28T18:05:47;19.20;;;12.40;;
48623;SDS011;34422;45.802;16.114;2022-09-28T18:08:19;16.00;;;10.18;;
48623;SDS011;34422;45.802;16.114;2022-09-28T18:10:47;17.77;;;11.10;;
48623;SDS011;34422;45.802;16.114;2022-09-28T18:13:16;20.10;;;11.50;;
48623;SDS011;34422;45.802;16.114;2022-09-28T18:15:43;16.75;;;10.52;;
48623;SDS011;34422;45.802;16.114;2022-09-28T18:18:10;16.83;;;9.02;;
48623;SDS011;34422;45.802;16.114;2022-09-28T18:20:39;21.58;;;16.52;;
48623;SDS011;34422;45.802;16.114;2022-09-28T18:23:07;40.03;;;29.77;;
48623;SDS011;34422;45.802;16.114;2022-09-28T18:25:37;30.55;;;21.75;;